createdAt,value
2023-02-02T00:00:37.588Z,4.56
2023-02-02T00:03:08.952Z,2.85
2023-02-02T00:05:38.599Z,3.42
2023-02-02T00:08:08.396Z,2.85
2023-02-02T00:10:38.166Z,2.85
2023-02-02T00:13:08.390Z,2.85
2023-02-02T00:15:39.112Z,2.85
2023-02-02T00:18:08.873Z,3.42
2023-02-02T00:20:38.760Z,3.23
2023-02-02T00:23:08.565Z,4.37
2023-02-02T00:25:38.310Z,3.04
2023-02-02T00:28:08.081Z,4.18
2023-02-02T00:30:37.802Z,3.04
2023-02-02T00:33:07.641Z,2.66
2023-02-02T00:35:41.102Z,3.80
2023-02-02T00:38:10.895Z,3.42
2023-02-02T00:40:40.582Z,2.85
2023-02-02T00:43:09.071Z,3.04
2023-02-02T00:45:38.828Z,2.66
2023-02-02T00:48:06.262Z,3.23
2023-02-02T00:50:34.277Z,3.23
2023-02-02T00:53:03.366Z,3.61
2023-02-02T00:55:31.544Z,3.99
2023-02-02T00:57:59.651Z,4.75
2023-02-02T01:00:28.205Z,3.04
2023-02-02T01:02:57.129Z,3.23
2023-02-02T01:05:25.050Z,4.37
2023-02-02T01:07:53.252Z,4.37
2023-02-02T01:10:21.914Z,3.80
2023-02-02T01:12:50.062Z,2.66
2023-02-02T01:15:18.862Z,2.85
2023-02-02T01:17:47.806Z,3.80
2023-02-02T01:20:20.545Z,2.66
2023-02-02T01:22:50.620Z,4.37
2023-02-02T01:25:18.932Z,3.23
2023-02-02T01:27:47.284Z,3.42
2023-02-02T01:30:15.711Z,3.99
2023-02-02T01:32:44.743Z,3.42
2023-02-02T01:35:11.998Z,3.42
2023-02-02T01:37:40.403Z,3.04
2023-02-02T01:40:10.687Z,3.99
2023-02-02T01:42:40.471Z,3.23
2023-02-02T01:45:23.053Z,2.85
2023-02-02T01:47:58.414Z,3.80
2023-02-02T01:50:34.501Z,3.99
2023-02-02T01:53:07.601Z,3.23
2023-02-02T01:55:41.385Z,4.94
2023-02-02T01:58:34.046Z,3.80
2023-02-02T02:01:05.664Z,3.61
2023-02-02T02:03:37.905Z,3.23
2023-02-02T02:06:14.331Z,2.85
2023-02-02T02:09:10.292Z,3.99
2023-02-02T02:11:40.776Z,3.42
2023-02-02T02:14:33.193Z,3.80
2023-02-02T02:17:42.663Z,3.80
2023-02-02T02:20:50.975Z,3.61
2023-02-02T02:24:43.911Z,3.99
2023-02-02T02:28:01.783Z,3.42
2023-02-02T02:31:01.827Z,3.99
2023-02-02T02:34:05.784Z,2.85
2023-02-02T02:36:56.837Z,3.04
2023-02-02T02:39:34.238Z,3.61
2023-02-02T02:42:20.448Z,3.04
2023-02-02T02:44:53.358Z,2.66
2023-02-02T02:47:23.187Z,3.42
2023-02-02T02:49:53.246Z,3.80
2023-02-02T02:52:23.324Z,3.04
2023-02-02T02:54:56.625Z,3.42
2023-02-02T02:57:54.486Z,2.66
2023-02-02T03:00:36.150Z,3.80
2023-02-02T03:03:11.909Z,2.66
2023-02-02T03:06:30.031Z,3.04
2023-02-02T03:09:08.672Z,3.04
2023-02-02T03:11:35.951Z,4.18
2023-02-02T03:14:09.549Z,3.42
2023-02-02T03:16:39.832Z,3.23
2023-02-02T03:19:09.751Z,4.37
2023-02-02T03:21:39.522Z,3.61
2023-02-02T03:24:09.333Z,3.99
2023-02-02T03:26:39.565Z,2.85
2023-02-02T03:29:09.564Z,3.42
2023-02-02T03:31:39.414Z,3.42
2023-02-02T03:34:09.273Z,3.99
2023-02-02T03:36:39.001Z,3.23
2023-02-02T03:39:08.834Z,2.66
2023-02-02T03:41:38.610Z,2.85
2023-02-02T03:44:08.357Z,3.04
2023-02-02T03:46:38.182Z,2.66
2023-02-02T03:49:07.963Z,2.66
2023-02-02T03:51:37.691Z,2.85
2023-02-02T03:54:07.488Z,2.47
2023-02-02T03:56:37.265Z,2.09
2023-02-02T03:59:07.032Z,2.28
2023-02-02T04:01:36.888Z,2.28
2023-02-02T04:04:06.711Z,2.09
2023-02-02T04:06:36.563Z,2.85
2023-02-02T04:09:06.430Z,1.90
2023-02-02T04:11:36.230Z,1.90
2023-02-02T04:14:07.095Z,2.09
2023-02-02T04:16:37.837Z,2.09
2023-02-02T04:19:08.272Z,2.47
2023-02-02T04:21:38.017Z,2.66
2023-02-02T04:24:12.239Z,2.85
2023-02-02T04:26:39.669Z,2.66
2023-02-02T04:29:08.539Z,3.23
2023-02-02T04:31:36.124Z,2.09
2023-02-02T04:34:04.567Z,2.85
2023-02-02T04:36:33.061Z,2.66
2023-02-02T04:39:01.699Z,2.66
2023-02-02T04:41:30.007Z,2.85
2023-02-02T04:43:58.285Z,2.85
2023-02-02T04:46:28.148Z,2.47
2023-02-02T04:48:55.221Z,2.28
2023-02-02T04:51:23.984Z,2.85
2023-02-02T04:53:52.124Z,2.28
2023-02-02T04:56:20.660Z,2.85
2023-02-02T04:58:49.061Z,2.66
2023-02-02T05:01:20.919Z,2.66
2023-02-02T05:03:50.026Z,2.09
2023-02-02T05:06:19.554Z,2.09
2023-02-02T05:08:49.614Z,3.04
2023-02-02T05:11:23.342Z,2.66
2023-02-02T05:13:54.291Z,2.28
2023-02-02T05:16:24.211Z,2.66
2023-02-02T05:18:57.732Z,2.66
2023-02-02T05:21:25.659Z,2.28
2023-02-02T05:23:55.855Z,3.04
2023-02-02T05:26:27.235Z,2.85
2023-02-02T05:28:57.382Z,2.85
2023-02-02T05:31:26.766Z,2.28
2023-02-02T05:33:56.659Z,2.85
2023-02-02T05:36:26.665Z,2.47
2023-02-02T05:38:56.488Z,2.85
2023-02-02T05:41:26.203Z,2.47
2023-02-02T05:43:55.948Z,2.47
2023-02-02T05:46:25.762Z,2.66
2023-02-02T05:48:58.791Z,2.47
2023-02-02T05:51:57.518Z,3.04
2023-02-02T05:54:27.259Z,2.09
2023-02-02T05:56:57.215Z,2.47
2023-02-02T05:59:29.219Z,2.66
2023-02-02T06:01:59.071Z,1.90
2023-02-02T06:04:28.834Z,3.04
2023-02-02T06:06:58.542Z,1.71
2023-02-02T06:09:27.063Z,2.85
2023-02-02T06:11:55.577Z,2.66
2023-02-02T06:14:24.193Z,2.47
2023-02-02T06:16:52.422Z,3.42
2023-02-02T06:19:20.769Z,2.28
2023-02-02T06:21:49.294Z,2.85
2023-02-02T06:24:17.546Z,2.09
2023-02-02T06:26:46.091Z,2.28
2023-02-02T06:29:15.187Z,3.04
2023-02-02T06:31:43.446Z,3.42
2023-02-02T06:34:15.012Z,2.66
2023-02-02T06:36:43.433Z,3.04
2023-02-02T06:39:13.220Z,2.85
2023-02-02T06:41:46.541Z,1.90
2023-02-02T06:44:15.454Z,2.09
2023-02-02T06:46:43.179Z,2.66
2023-02-02T06:49:11.294Z,2.28
2023-02-02T06:51:39.610Z,2.28
2023-02-02T06:54:08.103Z,2.47
2023-02-02T06:56:36.505Z,1.90
2023-02-02T06:59:04.936Z,2.66
2023-02-02T07:01:33.313Z,2.09
2023-02-02T07:04:01.792Z,2.85
2023-02-02T07:06:30.221Z,2.85
2023-02-02T07:09:02.736Z,3.61
2023-02-02T07:11:38.511Z,1.90
2023-02-02T07:14:11.945Z,3.99
2023-02-02T07:16:41.671Z,2.66
2023-02-02T07:19:11.395Z,2.85
2023-02-02T07:21:41.263Z,2.85
2023-02-02T07:24:11.071Z,2.66
2023-02-02T07:26:40.977Z,2.47
2023-02-02T07:29:14.557Z,3.42
2023-02-02T07:31:44.659Z,2.85
2023-02-02T07:34:14.421Z,2.09
2023-02-02T07:36:44.269Z,2.85
2023-02-02T07:39:14.560Z,3.61
2023-02-02T07:41:44.298Z,2.47
2023-02-02T07:44:15.579Z,3.23
2023-02-02T07:46:47.563Z,2.28
2023-02-02T07:49:19.896Z,3.42
2023-02-02T07:51:49.658Z,3.23
2023-02-02T07:54:19.463Z,2.85
2023-02-02T07:56:49.743Z,2.85
2023-02-02T07:59:19.499Z,2.85
2023-02-02T08:01:49.415Z,3.61
2023-02-02T08:04:19.742Z,3.61
2023-02-02T08:06:49.606Z,2.66
2023-02-02T08:09:19.444Z,3.23
2023-02-02T08:11:49.176Z,4.18
2023-02-02T08:14:19.031Z,3.61
2023-02-02T08:16:48.745Z,3.42
2023-02-02T08:19:18.608Z,3.42
2023-02-02T08:21:48.426Z,3.61
2023-02-02T08:24:15.696Z,3.04
2023-02-02T08:26:43.020Z,3.04
2023-02-02T08:29:17.132Z,2.85
2023-02-02T08:31:46.221Z,2.47
2023-02-02T08:34:16.331Z,3.61
2023-02-02T08:36:46.089Z,3.04
2023-02-02T08:39:16.035Z,2.66
2023-02-02T08:41:45.872Z,3.23
2023-02-02T08:44:16.302Z,3.42
2023-02-02T08:46:46.014Z,3.04
2023-02-02T08:49:16.025Z,2.47
2023-02-02T08:51:45.724Z,2.85
2023-02-02T08:54:15.485Z,2.66
2023-02-02T08:56:45.333Z,2.85
2023-02-02T08:59:15.125Z,2.66
2023-02-02T09:01:45.091Z,3.23
2023-02-02T09:04:16.272Z,3.23
2023-02-02T09:06:45.865Z,3.04
2023-02-02T09:09:16.835Z,2.47
2023-02-02T09:11:46.280Z,2.85
2023-02-02T09:14:16.116Z,2.09
2023-02-02T09:16:46.075Z,2.66
2023-02-02T09:19:15.823Z,2.47
2023-02-02T09:21:45.666Z,2.28
2023-02-02T09:24:15.506Z,2.47
2023-02-02T09:26:45.909Z,2.85
2023-02-02T09:29:20.241Z,2.66
2023-02-02T09:31:47.216Z,2.28
2023-02-02T09:34:17.148Z,2.47
2023-02-02T09:36:47.766Z,2.85
2023-02-02T09:39:19.477Z,2.66
2023-02-02T09:42:32.973Z,2.28
2023-02-02T09:45:38.548Z,2.47
2023-02-02T09:48:31.128Z,2.28
2023-02-02T09:51:09.548Z,2.85
2023-02-02T09:54:02.155Z,3.80
2023-02-02T09:56:44.700Z,2.28
2023-02-02T09:59:24.680Z,2.47
2023-02-02T10:02:07.486Z,2.47
2023-02-02T10:04:43.759Z,2.09
2023-02-02T10:07:21.137Z,2.28
2023-02-02T10:10:02.509Z,2.28
2023-02-02T10:12:55.232Z,2.28
2023-02-02T10:15:50.775Z,2.85
2023-02-02T10:19:03.553Z,3.04
2023-02-02T10:22:00.156Z,2.28
2023-02-02T10:24:32.708Z,2.28
2023-02-02T10:27:14.146Z,2.28
2023-02-02T10:30:44.273Z,1.90
2023-02-02T10:33:53.281Z,3.04
2023-02-02T10:36:47.774Z,3.23
2023-02-02T10:39:44.827Z,2.47
2023-02-02T10:43:31.847Z,2.85
2023-02-02T10:46:05.825Z,3.04
2023-02-02T10:48:36.246Z,2.09
2023-02-02T10:51:29.902Z,2.47
2023-02-02T10:54:06.019Z,2.47
2023-02-02T10:56:43.069Z,2.66
2023-02-02T10:59:27.386Z,3.04
2023-02-02T11:01:57.299Z,2.47
2023-02-02T11:04:48.212Z,2.09
2023-02-02T11:07:20.576Z,2.28
2023-02-02T11:09:50.301Z,1.71
2023-02-02T11:12:32.410Z,1.71
2023-02-02T11:15:30.001Z,2.09
2023-02-02T11:18:30.685Z,1.90
2023-02-02T11:21:00.620Z,2.28
2023-02-02T11:23:28.935Z,3.61
2023-02-02T11:26:05.155Z,1.52
2023-02-02T11:28:39.156Z,1.71
2023-02-02T11:31:07.353Z,2.28
2023-02-02T11:33:37.173Z,1.90
2023-02-02T11:36:21.880Z,2.28
2023-02-02T11:39:21.566Z,2.09
2023-02-02T11:42:01.490Z,2.47
2023-02-02T11:44:32.735Z,2.47
2023-02-02T11:47:05.503Z,2.09
2023-02-02T11:49:43.842Z,1.90
2023-02-02T11:52:21.730Z,2.66
2023-02-02T11:55:00.663Z,2.28
2023-02-02T11:57:30.667Z,1.90
2023-02-02T12:00:26.983Z,1.90
2023-02-02T12:02:58.251Z,2.28
2023-02-02T12:05:37.234Z,2.47
2023-02-02T12:08:12.631Z,2.47
2023-02-02T12:11:07.208Z,2.47
2023-02-02T12:13:54.963Z,2.28
2023-02-02T12:16:58.180Z,1.71
2023-02-02T12:20:12.833Z,2.09
2023-02-02T12:23:24.008Z,2.28
2023-02-02T12:26:35.014Z,1.71
2023-02-02T12:29:16.416Z,2.09
2023-02-02T12:31:52.071Z,1.71
2023-02-02T12:34:55.232Z,2.47
2023-02-02T12:37:46.024Z,1.90
2023-02-02T12:40:35.458Z,2.09
2023-02-02T12:43:35.459Z,2.09
2023-02-02T12:46:28.101Z,2.09
2023-02-02T12:48:56.743Z,2.47
2023-02-02T12:51:55.379Z,2.09
2023-02-02T12:55:09.208Z,2.47
2023-02-02T12:58:09.152Z,2.09
2023-02-02T13:01:07.749Z,2.09
2023-02-02T13:04:09.940Z,2.09
2023-02-02T13:06:53.832Z,2.28
2023-02-02T13:10:01.992Z,1.52
2023-02-02T13:12:37.691Z,2.09
2023-02-02T13:15:15.005Z,1.90
2023-02-02T13:17:57.028Z,1.90
2023-02-02T13:20:37.484Z,2.47
2023-02-02T13:23:34.926Z,1.71
2023-02-02T13:26:23.154Z,2.09
2023-02-02T13:29:23.103Z,1.90
2023-02-02T13:32:15.545Z,1.71
2023-02-02T13:34:49.351Z,1.90
2023-02-02T13:37:32.248Z,2.09
2023-02-02T13:40:19.894Z,2.85
2023-02-02T13:43:11.497Z,1.52
2023-02-02T13:46:06.703Z,1.90
2023-02-02T13:49:18.501Z,1.71
2023-02-02T13:52:29.586Z,1.90
2023-02-02T13:55:16.454Z,1.90
2023-02-02T13:58:38.933Z,2.47
2023-02-02T14:01:13.279Z,3.23
2023-02-02T14:03:56.847Z,1.71
2023-02-02T14:06:28.701Z,1.90
2023-02-02T14:09:05.508Z,3.23
2023-02-02T14:11:46.759Z,2.09
2023-02-02T14:14:32.357Z,2.09
2023-02-02T14:17:26.332Z,1.71
2023-02-02T14:20:01.606Z,2.47
2023-02-02T14:22:50.857Z,1.90
2023-02-02T14:25:29.736Z,2.85
2023-02-02T14:28:39.640Z,2.09
2023-02-02T14:31:43.366Z,2.28
2023-02-02T14:34:36.880Z,2.09
2023-02-02T14:37:25.330Z,2.09
2023-02-02T14:40:07.111Z,1.90
2023-02-02T14:43:17.603Z,3.04
2023-02-02T14:46:10.634Z,2.09
2023-02-02T14:48:48.480Z,2.66
2023-02-02T14:51:23.444Z,2.09
2023-02-02T14:54:01.253Z,2.47
2023-02-02T14:56:57.066Z,1.90
2023-02-02T14:59:33.013Z,1.71
2023-02-02T15:02:13.958Z,1.90
2023-02-02T15:04:48.016Z,1.90
2023-02-02T15:07:51.485Z,2.09
2023-02-02T15:10:51.911Z,1.90
2023-02-02T15:13:26.960Z,3.04
2023-02-02T15:16:15.574Z,2.66
2023-02-02T15:18:55.462Z,2.09
2023-02-02T15:21:29.379Z,2.09
2023-02-02T15:24:00.007Z,2.66
2023-02-02T15:26:42.950Z,1.90
2023-02-02T15:29:42.659Z,1.90
2023-02-02T15:32:24.546Z,1.52
2023-02-02T15:35:02.200Z,1.90
2023-02-02T15:37:40.411Z,1.90
2023-02-02T15:40:25.181Z,1.52
2023-02-02T15:43:01.811Z,2.28
2023-02-02T15:45:43.278Z,2.09
2023-02-02T15:48:31.326Z,2.09
2023-02-02T15:51:06.931Z,1.90
2023-02-02T15:53:42.774Z,1.71
2023-02-02T15:56:30.396Z,1.90
2023-02-02T15:58:59.994Z,1.90
2023-02-02T16:01:44.475Z,2.09
2023-02-02T16:04:39.559Z,2.09
2023-02-02T16:07:21.945Z,2.66
2023-02-02T16:09:51.767Z,2.66
2023-02-02T16:12:23.642Z,1.71
2023-02-02T16:14:54.842Z,2.66
2023-02-02T16:17:35.448Z,1.90
2023-02-02T16:20:18.109Z,2.47
2023-02-02T16:22:48.532Z,2.09
2023-02-02T16:25:22.412Z,2.09
2023-02-02T16:27:53.095Z,2.47
2023-02-02T16:30:27.546Z,2.28
2023-02-02T16:32:57.488Z,3.23
2023-02-02T16:35:35.463Z,2.47
2023-02-02T16:38:25.685Z,1.90
2023-02-02T16:41:26.437Z,2.28
2023-02-02T16:43:56.459Z,1.90
2023-02-02T16:46:47.682Z,2.47
2023-02-02T16:49:23.801Z,2.66
2023-02-02T16:52:19.098Z,2.28
2023-02-02T16:54:56.827Z,2.66
2023-02-02T16:57:34.036Z,2.47
2023-02-02T17:00:09.009Z,2.66
2023-02-02T17:02:48.167Z,3.04
2023-02-02T17:05:25.165Z,2.85
2023-02-02T17:08:04.595Z,3.23
2023-02-02T17:10:44.244Z,3.99
2023-02-02T17:13:41.524Z,2.85
2023-02-02T17:16:18.882Z,2.47
2023-02-02T17:18:49.455Z,3.23
2023-02-02T17:21:24.064Z,2.85
2023-02-02T17:23:54.377Z,3.04
2023-02-02T17:26:24.321Z,3.04
2023-02-02T17:29:00.209Z,2.47
2023-02-02T17:31:27.871Z,3.23
2023-02-02T17:33:57.864Z,2.85
2023-02-02T17:36:27.740Z,3.23
2023-02-02T17:38:57.448Z,3.04
2023-02-02T17:41:27.211Z,2.66
2023-02-02T17:43:56.922Z,2.47
2023-02-02T17:46:31.082Z,2.47
2023-02-02T17:49:00.893Z,2.66
2023-02-02T17:51:30.799Z,3.61
2023-02-02T17:54:00.435Z,3.80
2023-02-02T17:56:29.131Z,5.89
2023-02-02T17:58:57.624Z,5.13
2023-02-02T18:01:26.114Z,5.70
2023-02-02T18:03:55.466Z,5.89
2023-02-02T18:06:23.360Z,5.89
2023-02-02T18:08:51.327Z,8.74
2023-02-02T18:11:20.862Z,11.02
2023-02-02T18:13:48.110Z,11.97
2023-02-02T18:16:16.701Z,8.93
2023-02-02T18:18:45.743Z,11.59
2023-02-02T18:21:14.197Z,10.83
2023-02-02T18:23:41.698Z,7.41
2023-02-02T18:26:20.098Z,5.70
2023-02-02T18:28:50.863Z,5.89
2023-02-02T18:31:23.957Z,6.08
2023-02-02T18:33:54.537Z,5.70
2023-02-02T18:36:24.802Z,4.56
2023-02-02T18:38:56.182Z,4.18
2023-02-02T18:41:25.980Z,3.23
2023-02-02T18:43:55.825Z,3.80
2023-02-02T18:46:27.025Z,3.04
2023-02-02T18:48:56.834Z,4.18
2023-02-02T18:51:26.646Z,2.47
2023-02-02T18:54:00.383Z,2.85
2023-02-02T18:56:30.657Z,2.66
2023-02-02T18:59:00.692Z,2.09
2023-02-02T19:01:30.868Z,3.04
2023-02-02T19:04:00.827Z,11.97
2023-02-02T19:06:49.678Z,12.73
2023-02-02T19:09:20.881Z,7.03
2023-02-02T19:11:54.910Z,5.32
2023-02-02T19:14:34.332Z,3.99
2023-02-02T19:17:28.064Z,8.17
2023-02-02T19:20:09.503Z,5.70
2023-02-02T19:22:39.597Z,5.32
2023-02-02T19:25:12.812Z,4.75
2023-02-02T19:27:42.609Z,3.99
2023-02-02T19:30:22.636Z,4.94
2023-02-02T19:32:49.981Z,3.61
2023-02-02T19:35:25.365Z,3.42
2023-02-02T19:38:01.712Z,3.61
2023-02-02T19:40:31.116Z,3.61
2023-02-02T19:43:10.295Z,3.42
2023-02-02T19:45:40.989Z,3.61
2023-02-02T19:48:16.987Z,3.04
2023-02-02T19:50:46.497Z,2.85
2023-02-02T19:53:23.058Z,3.23
2023-02-02T19:55:53.260Z,3.23
2023-02-02T19:58:28.882Z,3.61
2023-02-02T20:01:03.142Z,3.42
2023-02-02T20:03:47.079Z,3.61
2023-02-02T20:06:26.670Z,3.61
2023-02-02T20:08:57.072Z,3.23
2023-02-02T20:11:38.793Z,3.80
2023-02-02T20:14:28.416Z,3.42
2023-02-02T20:17:15.600Z,3.23
2023-02-02T20:19:47.072Z,3.23
2023-02-02T20:22:34.943Z,3.99
2023-02-02T20:25:11.564Z,3.61
2023-02-02T20:27:39.493Z,3.80
2023-02-02T20:30:28.211Z,4.18
2023-02-02T20:33:02.917Z,3.61
2023-02-02T20:35:41.771Z,3.80
2023-02-02T20:38:24.832Z,4.56
2023-02-02T20:40:56.275Z,3.99
2023-02-02T20:43:26.201Z,4.37
2023-02-02T20:45:56.185Z,4.56
2023-02-02T20:48:27.638Z,4.56
2023-02-02T20:50:57.416Z,4.94
2023-02-02T20:53:27.313Z,6.84
2023-02-02T20:55:59.818Z,7.03
2023-02-02T20:58:29.019Z,7.22
2023-02-02T21:00:56.395Z,5.70
2023-02-02T21:03:26.233Z,4.94
2023-02-02T21:05:55.834Z,4.94
2023-02-02T21:08:25.623Z,4.94
2023-02-02T21:10:55.581Z,5.51
2023-02-02T21:13:25.431Z,5.13
2023-02-02T21:15:55.216Z,5.32
2023-02-02T21:18:25.030Z,4.56
2023-02-02T21:20:54.880Z,3.80
2023-02-02T21:23:24.644Z,4.56
2023-02-02T21:25:54.414Z,4.75
2023-02-02T21:28:24.166Z,4.75
2023-02-02T21:30:54.094Z,4.56
2023-02-02T21:33:24.294Z,6.27
2023-02-02T21:35:58.231Z,4.37
2023-02-02T21:38:27.177Z,4.75
2023-02-02T21:40:58.119Z,4.37
2023-02-02T21:43:27.932Z,4.37
2023-02-02T21:45:57.818Z,4.75
2023-02-02T21:48:36.178Z,5.13
2023-02-02T21:51:33.331Z,4.75
2023-02-02T21:54:28.438Z,4.56
2023-02-02T21:56:57.638Z,4.75
2023-02-02T21:59:36.630Z,4.18
2023-02-02T22:02:43.333Z,4.56
2023-02-02T22:05:22.443Z,5.32
2023-02-02T22:07:56.669Z,6.27
2023-02-02T22:10:34.659Z,4.37
2023-02-02T22:13:16.789Z,4.94
2023-02-02T22:15:50.836Z,5.51
2023-02-02T22:18:24.743Z,6.46
2023-02-02T22:20:56.326Z,4.75
2023-02-02T22:23:28.668Z,4.94
2023-02-02T22:25:59.223Z,5.51
2023-02-02T22:28:47.231Z,4.75
2023-02-02T22:31:17.059Z,5.32
2023-02-02T22:33:46.980Z,5.32
2023-02-02T22:36:16.806Z,5.89
2023-02-02T22:38:46.623Z,6.46
2023-02-02T22:41:16.541Z,5.51
2023-02-02T22:43:46.317Z,4.94
2023-02-02T22:46:16.143Z,5.70
2023-02-02T22:48:45.951Z,5.51
2023-02-02T22:51:16.476Z,6.08
2023-02-02T22:53:47.195Z,4.75
2023-02-02T22:56:17.034Z,5.32
2023-02-02T22:58:46.857Z,5.13
2023-02-02T23:01:17.247Z,4.37
2023-02-02T23:03:48.575Z,5.32
2023-02-02T23:06:18.377Z,5.89
2023-02-02T23:08:46.870Z,5.51
2023-02-02T23:11:15.262Z,5.32
2023-02-02T23:13:43.720Z,5.51
2023-02-02T23:16:12.512Z,5.70
2023-02-02T23:18:40.716Z,6.27
2023-02-02T23:21:10.527Z,5.51
2023-02-02T23:23:39.030Z,6.08
2023-02-02T23:26:07.460Z,4.37
2023-02-02T23:28:35.913Z,4.18
2023-02-02T23:31:04.852Z,6.08
2023-02-02T23:33:32.349Z,4.37
2023-02-02T23:36:02.070Z,5.70
2023-02-02T23:38:30.455Z,5.51
2023-02-02T23:41:00.379Z,5.89
2023-02-02T23:43:27.888Z,4.94
2023-02-02T23:45:56.004Z,6.27
2023-02-02T23:48:24.814Z,5.70
2023-02-02T23:50:53.579Z,5.70
2023-02-02T23:53:22.559Z,5.51
2023-02-02T23:55:49.817Z,5.32
2023-02-02T23:58:20.534Z,7.03
